Time;durP1;ratioP1;P1;durP2;ratioP2;P2;SDS_P1;SDS_P2;PMS_P1;PMS_P2;Temp;Humidity;BMP_temperature;BMP_pressure;BME280_temperature;BME280_humidity;BME280_pressure;Samples;Min_cycle;Max_cycle;Signal;HPM_P1;HPM_P2
2022/12/08 00:01:11;;;;;;;3.08;0.40;;;3.50;99.90;;;;;;5053445;28;20059;-82
2022/12/08 00:03:37;;;;;;;4.07;0.70;;;3.60;99.90;;;;;;5053505;28;20178;-81
2022/12/08 00:11:33;;;;;;;5.28;2.25;;;3.60;99.90;;;;;;5053379;28;20091;-81
2022/12/08 00:13:59;;;;;;;7.00;0.70;;;3.60;99.90;;;;;;5053287;28;20453;-81
2022/12/08 00:16:25;;;;;;;4.20;0.82;;;3.80;99.90;;;;;;5053220;28;20049;-81
2022/12/08 00:18:51;;;;;;;2.72;0.63;;;3.70;99.90;;;;;;5053329;28;20485;-81
2022/12/08 00:21:17;;;;;;;4.88;0.60;;;3.70;99.90;;;;;;5054210;28;20471;-82
2022/12/08 00:23:43;;;;;;;0.38;0.10;;;3.70;99.90;;;;;;5053080;28;20382;-81
2022/12/08 00:26:08;;;;;;;0.40;0.00;;;3.80;99.90;;;;;;5052312;28;20040;-81
2022/12/08 00:28:34;;;;;;;4.28;0.20;;;3.80;99.90;;;;;;5052813;28;20127;-81
2022/12/08 00:31:06;;;;;;;2.20;0.28;;;3.80;99.90;;;;;;5052871;28;20044;-81
2022/12/08 00:33:32;;;;;;;1.20;0.20;;;3.80;99.90;;;;;;5052892;28;20119;-81
2022/12/08 00:35:57;;;;;;;1.95;0.20;;;3.70;99.90;;;;;;5054029;28;20362;-81
2022/12/08 00:38:23;;;;;;;3.60;0.40;;;3.70;99.90;;;;;;5053709;28;20115;-81
2022/12/08 00:40:49;;;;;;;0.47;0.08;;;3.70;99.90;;;;;;5052851;28;20105;-81
2022/12/08 00:43:14;;;;;;;1.20;0.00;;;3.60;99.90;;;;;;5052858;28;20047;-81
2022/12/08 00:45:40;;;;;;;1.55;0.10;;;3.50;99.90;;;;;;5053880;28;20045;-81
2022/12/08 00:48:06;;;;;;;1.10;0.20;;;3.50;99.90;;;;;;5053934;28;20045;-81
2022/12/08 00:50:32;;;;;;;0.35;0.10;;;3.50;99.90;;;;;;5052417;28;20043;-81
2022/12/08 00:52:57;;;;;;;0.47;0.08;;;3.40;99.90;;;;;;5052497;28;20507;-81
2022/12/08 00:55:23;;;;;;;0.60;0.15;;;3.40;99.90;;;;;;5052632;28;20041;-81
2022/12/08 00:57:49;;;;;;;2.00;0.20;;;3.30;99.90;;;;;;5053772;28;20041;-81
2022/12/08 01:00:15;;;;;;;0.57;0.10;;;3.30;99.90;;;;;;5053769;28;20037;-81
2022/12/08 01:02:40;;;;;;;1.80;0.10;;;3.20;99.90;;;;;;5052401;28;20086;-82
2022/12/08 01:05:07;;;;;;;1.83;0.10;;;3.30;99.90;;;;;;5052351;28;20049;-82
2022/12/08 01:07:33;;;;;;;3.75;0.28;;;3.20;99.90;;;;;;5052394;28;20080;-82
2022/12/08 01:09:58;;;;;;;9.63;0.90;;;3.20;99.90;;;;;;5052181;28;20083;-82
2022/12/08 01:12:24;;;;;;;5.57;0.30;;;3.20;99.90;;;;;;5052439;28;20484;-82
2022/12/08 01:14:49;;;;;;;2.50;0.30;;;3.20;99.90;;;;;;5052804;28;20551;-82
2022/12/08 01:17:15;;;;;;;1.60;0.40;;;3.30;99.90;;;;;;5052502;28;20045;-82
2022/12/08 01:19:41;;;;;;;5.55;0.90;;;3.40;99.90;;;;;;5052274;28;20124;-82
2022/12/08 01:22:06;;;;;;;2.90;0.80;;;3.40;99.90;;;;;;5051909;28;20110;-82
2022/12/08 01:24:32;;;;;;;4.30;0.40;;;3.50;99.90;;;;;;5052194;28;20053;-81
2022/12/08 01:26:57;;;;;;;4.63;0.50;;;3.50;99.90;;;;;;5052319;28;20389;-81
2022/12/08 01:29:23;;;;;;;5.10;0.63;;;3.50;99.90;;;;;;5052032;28;20507;-81
2022/12/08 01:31:49;;;;;;;3.95;0.30;;;3.40;99.90;;;;;;5051949;28;20504;-81
2022/12/08 01:34:14;;;;;;;5.18;0.30;;;3.50;99.90;;;;;;5052419;28;20037;-81
2022/12/08 01:36:41;;;;;;;3.97;0.30;;;3.50;99.90;;;;;;5052237;28;20044;-82
2022/12/08 01:39:09;;;;;;;2.22;0.57;;;3.40;99.90;;;;;;5055989;28;20041;-82
2022/12/08 01:41:37;;;;;;;3.45;0.57;;;3.40;99.90;;;;;;5056223;28;20131;-82
2022/12/08 01:44:22;;;;;;;4.82;0.52;;;3.40;99.90;;;;;;5055977;28;20393;-82
2022/12/08 01:46:48;;;;;;;5.63;0.60;;;3.50;99.90;;;;;;5048674;28;20135;-82
2022/12/08 01:49:19;;;;;;;6.68;0.63;;;3.70;99.90;;;;;;5055972;28;20151;-82
2022/12/08 01:51:58;;;;;;;4.93;0.47;;;3.80;99.90;;;;;;5055818;28;20041;-82
2022/12/08 01:54:28;;;;;;;5.72;1.08;;;3.80;99.90;;;;;;5055799;28;20481;-82
2022/12/08 01:57:07;;;;;;;3.75;0.38;;;3.80;99.90;;;;;;5056034;28;20583;-83
2022/12/08 01:59:37;;;;;;;4.03;0.25;;;3.70;99.90;;;;;;5056047;28;20049;-83
2022/12/08 02:02:03;;;;;;;1.92;0.40;;;3.60;99.90;;;;;;5055578;28;20041;-83
2022/12/08 02:04:28;;;;;;;2.35;0.30;;;3.60;99.90;;;;;;5055473;28;20128;-83
2022/12/08 02:06:54;;;;;;;2.28;0.10;;;3.50;99.90;;;;;;5055484;28;20092;-82
2022/12/08 02:09:20;;;;;;;0.65;0.50;;;3.50;99.90;;;;;;5055544;28;20484;-82
2022/12/08 02:11:47;;;;;;;0.68;0.10;;;3.30;99.90;;;;;;5055525;28;20045;-83
2022/12/08 02:14:13;;;;;;;0.93;0.10;;;3.30;99.90;;;;;;5055691;28;20098;-83
2022/12/08 02:17:10;;;;;;;2.45;0.30;;;3.30;99.90;;;;;;5055541;28;20082;-83
2022/12/08 02:20:17;;;;;;;0.22;0.13;;;3.20;99.90;;;;;;5055333;28;20392;-83
2022/12/08 02:22:59;;;;;;;1.23;0.10;;;3.10;99.90;;;;;;5054868;28;20114;-82
2022/12/08 02:25:36;;;;;;;3.03;0.20;;;3.00;99.90;;;;;;5055028;28;20051;-82
2022/12/08 02:28:26;;;;;;;0.25;0.10;;;3.00;99.90;;;;;;5055242;28;20049;-82
2022/12/08 02:31:17;;;;;;;1.77;0.20;;;2.90;99.90;;;;;;5055335;28;20049;-82
2022/12/08 02:34:20;;;;;;;0.25;0.10;;;2.90;99.90;;;;;;5055221;28;20492;-82
2022/12/08 02:37:11;;;;;;;2.83;0.30;;;2.90;99.90;;;;;;5055096;28;20102;-82
2022/12/08 02:40:05;;;;;;;2.22;0.30;;;2.90;99.90;;;;;;5054892;28;20049;-82
2022/12/08 02:42:41;;;;;;;3.55;0.30;;;2.90;99.90;;;;;;5054927;28;20544;-82
2022/12/08 02:45:28;;;;;;;3.00;0.25;;;3.00;99.90;;;;;;5054887;28;20048;-82
2022/12/08 02:47:54;;;;;;;4.28;0.55;;;3.00;99.90;;;;;;5054723;28;20107;-82
2022/12/08 02:50:20;;;;;;;1.40;0.32;;;2.90;99.90;;;;;;5054944;28;20110;-82
2022/12/08 02:52:47;;;;;;;2.58;0.17;;;2.80;99.90;;;;;;5054655;28;20484;-82
2022/12/08 02:55:46;;;;;;;0.98;0.63;;;2.90;99.90;;;;;;5054708;28;20045;-82
2022/12/08 02:58:45;;;;;;;3.10;0.30;;;3.00;99.90;;;;;;5054738;28;20037;-83
2022/12/08 03:01:20;;;;;;;1.58;0.20;;;2.90;99.90;;;;;;5054803;28;20055;-83
2022/12/08 03:04:04;;;;;;;7.80;1.55;;;3.00;99.90;;;;;;5054816;28;20033;-82
2022/12/08 03:06:43;;;;;;;3.85;0.28;;;3.00;99.90;;;;;;5054269;28;20389;-83
2022/12/08 03:09:27;;;;;;;3.92;0.30;;;2.90;99.90;;;;;;5054373;28;20080;-82
2022/12/08 03:12:12;;;;;;;5.30;0.52;;;3.00;99.90;;;;;;5054447;28;20044;-83
2022/12/08 03:14:41;;;;;;;3.05;0.55;;;2.90;99.90;;;;;;5054388;28;20056;-82
2022/12/08 03:17:08;;;;;;;4.13;0.30;;;3.10;99.90;;;;;;5054440;28;20045;-82
2022/12/08 03:19:37;;;;;;;4.28;0.40;;;3.30;99.90;;;;;;5054005;28;20053;-82
2022/12/08 03:22:05;;;;;;;7.68;1.00;;;3.40;99.90;;;;;;5053893;28;20053;-82
2022/12/08 03:24:35;;;;;;;4.88;0.40;;;3.30;99.90;;;;;;5054246;28;20503;-82
2022/12/08 03:27:11;;;;;;;6.72;1.15;;;3.40;99.90;;;;;;5053997;28;20480;-82
2022/12/08 03:29:37;;;;;;;7.82;0.70;;;3.50;99.90;;;;;;5053981;28;20486;-82
2022/12/08 03:32:29;;;;;;;2.75;0.40;;;3.60;99.90;;;;;;5053912;28;20053;-82
2022/12/08 03:34:57;;;;;;;2.85;0.40;;;3.70;99.90;;;;;;5054250;28;20064;-82
2022/12/08 03:37:23;;;;;;;0.77;0.20;;;3.70;99.90;;;;;;5053933;28;20044;-82
2022/12/08 03:39:48;;;;;;;5.35;0.75;;;3.80;99.90;;;;;;5053733;28;20105;-82
2022/12/08 03:42:14;;;;;;;2.28;0.32;;;3.80;99.90;;;;;;5053643;28;20136;-82
2022/12/08 03:44:40;;;;;;;3.58;0.50;;;3.80;99.90;;;;;;5053624;28;20472;-82
2022/12/08 03:47:05;;;;;;;4.75;0.32;;;3.80;99.90;;;;;;5053924;28;20048;-82
2022/12/08 03:49:31;;;;;;;4.57;0.40;;;3.80;99.90;;;;;;5053776;28;20473;-82
2022/12/08 03:51:56;;;;;;;1.67;0.35;;;3.90;99.90;;;;;;5053904;28;20107;-82
2022/12/08 03:54:23;;;;;;;3.50;0.40;;;3.90;99.90;;;;;;5053339;28;20045;-83
2022/12/08 03:56:48;;;;;;;1.35;0.15;;;3.90;99.90;;;;;;5053429;28;20037;-82
2022/12/08 03:59:14;;;;;;;1.52;0.20;;;4.00;99.90;;;;;;5053375;28;20064;-82
2022/12/08 04:01:40;;;;;;;0.95;0.43;;;3.70;99.90;;;;;;5053018;28;20045;-82
2022/12/08 04:04:05;;;;;;;2.30;0.30;;;3.70;99.90;;;;;;5053662;28;20128;-82
2022/12/08 04:06:31;;;;;;;2.95;0.20;;;3.80;99.90;;;;;;5054538;28;20408;-81
2022/12/08 04:08:57;;;;;;;1.75;0.30;;;3.70;99.90;;;;;;5053352;28;20127;-81
2022/12/08 04:11:23;;;;;;;5.18;0.60;;;3.70;99.90;;;;;;5053118;28;20459;-82
2022/12/08 04:13:48;;;;;;;1.20;0.20;;;3.50;99.90;;;;;;5053364;28;20132;-82
2022/12/08 04:16:17;;;;;;;2.53;0.32;;;3.50;99.90;;;;;;5052981;28;20487;-81
2022/12/08 04:18:44;;;;;;;2.17;0.20;;;3.40;99.90;;;;;;5053186;28;20055;-82
2022/12/08 04:21:09;;;;;;;0.70;0.20;;;3.40;99.90;;;;;;5052795;28;20398;-82
2022/12/08 04:23:35;;;;;;;2.63;0.10;;;3.30;99.90;;;;;;5053195;28;20496;-82
2022/12/08 04:26:01;;;;;;;4.15;0.20;;;3.30;99.90;;;;;;5052917;28;20370;-81
2022/12/08 04:28:28;;;;;;;1.40;0.13;;;3.20;99.90;;;;;;5052939;28;20550;-81
2022/12/08 04:30:54;;;;;;;2.42;0.10;;;3.20;99.90;;;;;;5052718;28;20499;-81
2022/12/08 04:33:20;;;;;;;2.55;0.40;;;3.30;99.90;;;;;;5052866;28;20143;-81
2022/12/08 04:35:45;;;;;;;1.30;0.10;;;3.20;99.90;;;;;;5052916;28;20076;-81
2022/12/08 04:38:11;;;;;;;1.30;0.60;;;3.20;99.90;;;;;;5052635;28;20040;-81
2022/12/08 04:40:37;;;;;;;1.02;0.30;;;3.20;99.90;;;;;;5052697;28;20041;-81
2022/12/08 04:43:03;;;;;;;2.28;0.30;;;3.20;99.90;;;;;;5052681;28;20048;-81
2022/12/08 04:45:29;;;;;;;2.17;0.50;;;3.20;99.90;;;;;;5052836;28;20044;-81
2022/12/08 04:47:55;;;;;;;2.83;0.80;;;3.30;99.90;;;;;;5053925;28;20385;-81
2022/12/08 04:50:20;;;;;;;3.97;0.20;;;3.40;99.90;;;;;;5052650;28;20045;-82
2022/12/08 04:52:46;;;;;;;5.40;0.77;;;3.50;99.90;;;;;;5052619;28;20132;-81
2022/12/08 04:55:11;;;;;;;4.65;0.50;;;3.50;99.90;;;;;;5052701;28;20051;-81
2022/12/08 04:57:37;;;;;;;5.63;0.77;;;3.50;99.90;;;;;;5052566;28;20082;-81
2022/12/08 05:00:04;;;;;;;2.78;0.20;;;3.50;99.90;;;;;;5052427;28;20045;-81
2022/12/08 05:02:31;;;;;;;2.80;0.30;;;3.60;99.90;;;;;;5052454;28;20041;-81
2022/12/08 05:04:57;;;;;;;3.72;0.45;;;3.50;99.90;;;;;;5052261;28;20403;-81
2022/12/08 05:07:22;;;;;;;1.35;0.13;;;3.50;99.90;;;;;;5052493;28;20501;-82
2022/12/08 05:09:48;;;;;;;1.58;0.30;;;3.40;99.90;;;;;;5052533;28;20449;-81
2022/12/08 05:12:14;;;;;;;4.18;0.90;;;3.50;99.90;;;;;;5052450;28;20053;-81
2022/12/08 05:14:40;;;;;;;3.78;0.70;;;3.50;99.90;;;;;;5052295;28;20396;-81
2022/12/08 05:17:05;;;;;;;3.63;0.45;;;3.40;99.90;;;;;;5052300;28;20087;-81
2022/12/08 05:19:31;;;;;;;4.82;1.02;;;3.50;99.90;;;;;;5052220;28;20131;-81
2022/12/08 05:21:56;;;;;;;4.45;0.32;;;3.50;99.90;;;;;;5052092;28;20060;-81
2022/12/08 05:24:22;;;;;;;3.25;0.32;;;3.60;99.90;;;;;;5052008;28;20049;-81
2022/12/08 05:26:48;;;;;;;1.63;0.40;;;3.60;99.90;;;;;;5051951;28;20048;-81
2022/12/08 05:29:13;;;;;;;10.25;1.92;;;3.80;99.90;;;;;;5052203;28;20045;-82
2022/12/08 05:31:39;;;;;;;8.98;0.80;;;3.90;99.90;;;;;;5052462;28;20041;-82
2022/12/08 05:34:05;;;;;;;6.50;0.80;;;3.90;99.90;;;;;;5052387;28;20499;-82
2022/12/08 05:36:30;;;;;;;4.55;0.45;;;4.00;99.90;;;;;;5052202;28;20049;-82
2022/12/08 05:38:57;;;;;;;3.97;0.63;;;4.10;99.90;;;;;;5052197;28;20055;-82
2022/12/08 05:41:23;;;;;;;7.88;0.77;;;4.10;99.90;;;;;;5052221;28;20045;-82
2022/12/08 05:43:49;;;;;;;6.20;0.50;;;4.10;99.90;;;;;;5051979;28;20048;-81
2022/12/08 05:46:16;;;;;;;2.38;0.35;;;4.20;99.90;;;;;;5051961;28;20048;-81
2022/12/08 05:48:41;;;;;;;5.03;0.50;;;4.10;99.90;;;;;;5052095;28;20067;-82
2022/12/08 05:51:18;;;;;;;7.18;0.80;;;4.10;99.90;;;;;;5052119;28;20374;-82
2022/12/08 05:53:44;;;;;;;8.20;0.88;;;4.20;99.90;;;;;;5051928;28;20123;-82
2022/12/08 05:56:10;;;;;;;4.57;0.50;;;4.20;99.90;;;;;;5052156;28;20123;-82
2022/12/08 05:58:36;;;;;;;7.00;0.70;;;4.10;99.90;;;;;;5052209;28;20460;-82
2022/12/08 06:01:02;;;;;;;10.25;0.73;;;4.10;99.90;;;;;;5053147;28;20511;-81
2022/12/08 06:03:28;;;;;;;8.52;0.85;;;4.10;99.90;;;;;;5051903;28;20041;-82
2022/12/08 06:05:53;;;;;;;5.00;0.68;;;4.10;99.90;;;;;;5051833;28;20128;-82
2022/12/08 06:08:19;;;;;;;6.43;1.23;;;4.20;99.90;;;;;;5051722;28;20045;-82
2022/12/08 06:10:45;;;;;;;7.18;0.70;;;4.20;99.90;;;;;;5051969;28;20057;-82
2022/12/08 06:13:12;;;;;;;5.80;0.60;;;4.30;99.90;;;;;;5051744;28;20045;-82
2022/12/08 06:15:38;;;;;;;4.85;0.55;;;4.30;99.90;;;;;;5051760;28;20086;-82
2022/12/08 06:18:05;;;;;;;8.20;1.45;;;4.30;99.90;;;;;;5051800;28;20040;-81
2022/12/08 06:20:30;;;;;;;3.63;0.70;;;4.20;99.90;;;;;;5051804;28;20048;-81
2022/12/08 06:22:56;;;;;;;8.73;1.98;;;4.20;99.90;;;;;;5051967;28;20060;-81
2022/12/08 06:25:22;;;;;;;3.33;0.60;;;4.10;99.90;;;;;;5055417;28;20040;-81
2022/12/08 06:27:48;;;;;;;10.45;0.77;;;4.10;99.90;;;;;;5055249;28;20071;-81
2022/12/08 06:30:15;;;;;;;3.40;0.43;;;4.10;99.90;;;;;;5055418;28;20123;-81
2022/12/08 06:32:41;;;;;;;5.47;0.70;;;4.00;99.90;;;;;;5054950;28;20171;-81
2022/12/08 06:35:07;;;;;;;8.60;0.60;;;4.00;99.90;;;;;;5055001;28;20123;-81
2022/12/08 06:37:32;;;;;;;5.10;0.45;;;4.00;99.90;;;;;;5054918;28;20510;-82
2022/12/08 06:39:58;;;;;;;6.82;0.43;;;4.00;99.90;;;;;;5055251;28;20053;-81
2022/12/08 06:45:09;;;;;;;6.72;1.23;;;3.90;99.90;;;;;;5054690;28;20085;-81
2022/12/08 06:47:34;;;;;;;6.97;1.35;;;4.00;99.90;;;;;;5055020;28;20048;-82
2022/12/08 06:50:00;;;;;;;6.88;0.65;;;4.00;99.90;;;;;;5054778;28;20048;-82
2022/12/08 06:52:26;;;;;;;7.68;0.47;;;4.00;99.90;;;;;;5054771;28;20049;-81
2022/12/08 06:54:51;;;;;;;3.58;0.70;;;4.00;99.90;;;;;;5056007;28;20041;-81
2022/12/08 06:57:17;;;;;;;6.13;0.90;;;3.90;99.90;;;;;;5054688;28;20044;-82
2022/12/08 06:59:43;;;;;;;7.60;0.90;;;3.90;99.90;;;;;;5054757;28;20049;-82
2022/12/08 07:02:09;;;;;;;7.18;0.65;;;3.80;99.90;;;;;;5054393;28;20076;-82
2022/12/08 07:04:35;;;;;;;7.80;0.85;;;3.80;99.90;;;;;;5054735;28;20099;-81
2022/12/08 07:07:00;;;;;;;8.88;1.83;;;3.70;99.90;;;;;;5054408;28;20041;-81
2022/12/08 07:09:26;;;;;;;4.32;0.73;;;3.70;99.90;;;;;;5054688;28;20080;-81
2022/12/08 07:11:52;;;;;;;10.82;1.00;;;3.70;99.90;;;;;;5054708;28;20053;-82
2022/12/08 07:14:19;;;;;;;7.88;1.58;;;3.70;99.90;;;;;;5054740;28;20476;-81
2022/12/08 07:16:44;;;;;;;3.58;0.70;;;3.60;99.90;;;;;;5054500;28;20047;-82
2022/12/08 07:19:10;;;;;;;7.38;0.88;;;3.60;99.90;;;;;;5053863;28;20620;-81
2022/12/08 07:21:36;;;;;;;3.20;0.52;;;3.70;99.90;;;;;;5053914;28;20049;-81
2022/12/08 07:24:01;;;;;;;3.47;0.70;;;3.70;99.90;;;;;;5053438;28;20059;-81
2022/12/08 07:26:27;;;;;;;5.68;0.57;;;3.70;99.90;;;;;;5053293;28;20132;-81
2022/12/08 07:28:52;;;;;;;5.75;0.55;;;3.90;99.90;;;;;;5053771;28;20072;-81
2022/12/08 07:31:21;;;;;;;5.18;0.63;;;4.00;99.90;;;;;;5053583;28;20080;-81
2022/12/08 07:33:47;;;;;;;2.88;0.40;;;4.00;99.90;;;;;;5053612;28;20482;-81
2022/12/08 07:36:13;;;;;;;10.23;0.70;;;4.00;99.90;;;;;;5052972;28;20132;-81
2022/12/08 07:38:39;;;;;;;2.88;0.15;;;3.90;99.90;;;;;;5054192;28;20084;-81
2022/12/08 07:41:04;;;;;;;2.30;0.38;;;3.80;99.90;;;;;;5053701;28;20041;-81
2022/12/08 07:43:30;;;;;;;5.32;0.77;;;3.50;99.90;;;;;;5052701;28;20048;-81
2022/12/08 07:45:56;;;;;;;2.05;0.20;;;3.50;99.90;;;;;;5053248;28;20048;-82
2022/12/08 07:48:21;;;;;;;1.20;0.20;;;3.50;99.90;;;;;;5053756;28;20103;-82
2022/12/08 07:50:47;;;;;;;1.95;0.20;;;3.50;99.90;;;;;;5053610;28;20049;-82
2022/12/08 07:53:13;;;;;;;2.05;1.13;;;3.40;99.90;;;;;;5053349;28;20112;-81
2022/12/08 07:55:43;;;;;;;3.67;1.50;;;3.30;99.90;;;;;;5053427;28;20131;-82
2022/12/08 07:58:09;;;;;;;2.42;1.00;;;3.20;99.90;;;;;;5054804;28;20051;-83
2022/12/08 08:00:35;;;;;;;2.40;0.73;;;3.20;99.90;;;;;;5053603;28;20166;-82
2022/12/08 08:03:01;;;;;;;2.15;0.60;;;3.10;99.90;;;;;;5053197;28;20480;-83
2022/12/08 08:05:27;;;;;;;4.82;0.85;;;3.10;99.90;;;;;;5050745;28;20041;-82
2022/12/08 08:07:53;;;;;;;2.47;0.88;;;3.10;99.90;;;;;;5042031;28;20107;-82
2022/12/08 08:10:18;;;;;;;3.47;0.60;;;3.10;99.90;;;;;;5033238;28;20083;-82
2022/12/08 08:12:44;;;;;;;3.25;0.75;;;3.10;99.90;;;;;;5033125;28;20042;-83
2022/12/08 08:15:10;;;;;;;4.72;0.70;;;3.10;99.90;;;;;;5034197;28;20092;-80
2022/12/08 08:17:36;;;;;;;3.33;0.40;;;3.10;99.90;;;;;;5033105;28;20080;-82
2022/12/08 08:20:06;;;;;;;4.32;0.80;;;3.20;99.90;;;;;;5032801;28;20556;-83
2022/12/08 08:22:32;;;;;;;7.00;1.13;;;3.10;99.90;;;;;;5032486;28;20062;-82
2022/12/08 08:24:58;;;;;;;3.47;0.60;;;3.20;99.90;;;;;;5032591;28;20049;-82
2022/12/08 08:27:25;;;;;;;5.72;0.82;;;3.20;99.90;;;;;;5032674;28;20504;-81
2022/12/08 08:29:51;;;;;;;8.18;1.02;;;3.30;99.90;;;;;;5032727;28;20056;-82
2022/12/08 08:32:17;;;;;;;2.78;0.43;;;3.30;99.90;;;;;;5032602;28;20053;-81
2022/12/08 08:34:43;;;;;;;3.42;0.98;;;3.40;99.90;;;;;;5034056;28;20037;-82
2022/12/08 08:37:08;;;;;;;9.57;1.25;;;3.50;99.90;;;;;;5032403;28;20136;-81
2022/12/08 08:39:35;;;;;;;6.63;0.80;;;3.60;99.90;;;;;;5032676;28;20107;-82
2022/12/08 08:42:00;;;;;;;4.88;0.47;;;3.70;99.90;;;;;;5032431;28;20057;-82
2022/12/08 08:44:26;;;;;;;3.72;0.47;;;3.80;99.90;;;;;;5032610;28;20041;-80
2022/12/08 08:46:52;;;;;;;3.15;0.40;;;3.70;99.90;;;;;;5032033;28;20052;-81
2022/12/08 08:49:18;;;;;;;5.30;0.73;;;3.70;99.90;;;;;;5032575;28;20046;-79
2022/12/08 08:51:43;;;;;;;2.05;0.20;;;3.60;99.90;;;;;;5032519;28;20045;-79
2022/12/08 08:54:09;;;;;;;3.42;0.20;;;3.50;99.90;;;;;;5033427;28;20088;-79
2022/12/08 08:56:35;;;;;;;2.58;0.43;;;3.40;99.90;;;;;;5032268;28;20111;-79
2022/12/08 08:59:01;;;;;;;3.38;0.68;;;3.30;99.90;;;;;;5032167;28;20488;-80
2022/12/08 09:01:27;;;;;;;2.30;0.38;;;3.30;99.90;;;;;;5032172;28;20404;-80
2022/12/08 09:03:54;;;;;;;0.25;0.13;;;3.20;99.90;;;;;;5032651;28;20054;-82
2022/12/08 09:06:20;;;;;;;4.43;0.90;;;3.10;99.90;;;;;;5033552;28;20045;-79
2022/12/08 09:08:46;;;;;;;1.88;0.50;;;3.00;99.90;;;;;;5033123;28;20056;-79
2022/12/08 09:11:13;;;;;;;1.90;0.60;;;3.00;99.90;;;;;;5033673;28;20049;-79
2022/12/08 09:13:39;;;;;;;1.45;0.30;;;2.80;99.90;;;;;;5031984;28;20405;-81
2022/12/08 09:16:07;;;;;;;3.10;0.70;;;2.80;99.90;;;;;;5031970;28;20099;-81
2022/12/08 09:18:33;;;;;;;2.90;0.60;;;2.70;99.90;;;;;;5031956;28;20053;-81
2022/12/08 09:21:15;;;;;;;1.05;0.30;;;2.70;99.90;;;;;;5032028;28;20060;-81
2022/12/08 09:23:42;;;;;;;1.50;0.30;;;2.70;99.90;;;;;;5032049;28;20081;-80
2022/12/08 09:26:08;;;;;;;3.28;0.50;;;2.60;99.90;;;;;;5032469;28;20443;-81
2022/12/08 09:28:34;;;;;;;1.08;0.20;;;2.70;99.90;;;;;;5032000;28;20120;-80
2022/12/08 09:31:00;;;;;;;2.42;0.22;;;2.80;99.90;;;;;;5032270;28;20187;-82
2022/12/08 09:33:26;;;;;;;2.78;0.30;;;2.80;99.90;;;;;;5032198;28;20045;-79
2022/12/08 09:35:51;;;;;;;1.48;0.70;;;3.00;99.90;;;;;;5031771;28;20094;-80
2022/12/08 09:38:17;;;;;;;3.45;0.68;;;3.10;99.90;;;;;;5031907;28;20164;-80
2022/12/08 09:40:51;;;;;;;0.73;0.30;;;3.30;99.90;;;;;;5031760;28;20052;-79
2022/12/08 09:43:44;;;;;;;1.52;0.10;;;3.30;99.90;;;;;;5031996;28;20505;-79
2022/12/08 09:46:13;;;;;;;0.32;0.10;;;3.40;99.90;;;;;;5032823;28;20456;-79
2022/12/08 09:48:44;;;;;;;0.93;0.22;;;3.50;99.90;;;;;;5032945;28;20050;-79
2022/12/08 09:51:11;;;;;;;3.58;0.40;;;3.50;99.90;;;;;;5031886;28;20128;-79
2022/12/08 09:53:45;;;;;;;2.30;0.20;;;3.50;99.90;;;;;;5031683;28;20046;-79
2022/12/08 09:56:18;;;;;;;5.50;0.70;;;3.50;99.90;;;;;;5031638;28;20045;-79
2022/12/08 09:58:47;;;;;;;2.05;0.55;;;3.40;99.90;;;;;;5033490;28;20409;-78
2022/12/08 10:01:13;;;;;;;4.28;0.30;;;3.40;99.90;;;;;;5035372;28;20052;-80
2022/12/08 10:03:40;;;;;;;2.25;0.50;;;3.40;99.90;;;;;;5035607;28;20053;-80
2022/12/08 10:06:23;;;;;;;2.90;0.40;;;3.40;99.90;;;;;;5035318;28;20037;-80
2022/12/08 10:09:09;;;;;;;3.28;0.55;;;3.40;99.90;;;;;;5036504;28;20496;-79
2022/12/08 10:11:37;;;;;;;3.17;0.50;;;3.50;99.90;;;;;;5035600;28;20053;-79
2022/12/08 10:14:34;;;;;;;1.20;0.30;;;3.50;99.90;;;;;;5035186;28;20098;-79
2022/12/08 10:17:09;;;;;;;1.75;0.50;;;3.60;99.90;;;;;;5035170;28;20042;-81
2022/12/08 10:19:36;;;;;;;1.30;0.30;;;3.60;99.90;;;;;;5035357;28;20060;-77
2022/12/08 10:22:23;;;;;;;1.45;0.30;;;3.60;99.90;;;;;;5034778;28;20050;-78
2022/12/08 10:24:57;;;;;;;3.85;0.30;;;3.50;99.90;;;;;;5035065;28;20053;-78
2022/12/08 10:27:24;;;;;;;1.73;0.30;;;3.50;99.90;;;;;;5034981;28;20128;-78
2022/12/08 10:29:50;;;;;;;3.58;0.40;;;3.50;99.90;;;;;;5035044;28;20042;-78
2022/12/08 10:32:22;;;;;;;3.05;0.93;;;3.60;99.90;;;;;;5035088;28;20132;-78
2022/12/08 10:34:58;;;;;;;4.25;0.90;;;3.50;99.90;;;;;;5035099;28;20041;-78
2022/12/08 10:37:24;;;;;;;8.25;1.00;;;3.40;99.90;;;;;;5035013;28;20049;-78
2022/12/08 10:40:00;;;;;;;2.00;0.47;;;3.40;99.90;;;;;;5034970;28;20397;-79
2022/12/08 10:42:32;;;;;;;3.78;0.68;;;3.40;99.90;;;;;;5034599;28;20046;-78
2022/12/08 10:45:07;;;;;;;3.13;0.45;;;3.50;99.90;;;;;;5034918;28;20050;-78
2022/12/08 10:47:38;;;;;;;3.13;0.68;;;3.50;99.90;;;;;;5034810;28;20052;-80
2022/12/08 10:50:22;;;;;;;2.55;0.57;;;3.50;99.90;;;;;;5044182;28;20048;-80
2022/12/08 10:52:55;;;;;;;4.00;0.43;;;3.50;99.90;;;;;;5053573;28;20068;-80
2022/12/08 10:55:22;;;;;;;3.22;0.50;;;3.50;99.90;;;;;;5054416;28;20053;-80
2022/12/08 10:57:48;;;;;;;1.55;0.30;;;3.50;99.90;;;;;;5054297;28;20123;-80
2022/12/08 11:00:16;;;;;;;4.20;0.30;;;3.50;99.90;;;;;;5054287;28;20148;-81
2022/12/08 11:02:55;;;;;;;1.52;0.60;;;3.50;99.90;;;;;;5054531;28;20511;-82
2022/12/08 11:05:24;;;;;;;0.35;0.17;;;3.60;99.90;;;;;;5054228;28;20110;-82
2022/12/08 11:07:53;;;;;;;1.42;0.20;;;3.60;99.90;;;;;;5054113;28;20045;-83
2022/12/08 11:10:25;;;;;;;2.25;0.28;;;3.60;99.90;;;;;;5054184;28;20041;-82
2022/12/08 11:12:51;;;;;;;0.95;0.73;;;3.60;99.90;;;;;;5054073;28;20093;-82
2022/12/08 11:15:17;;;;;;;1.52;0.40;;;3.70;99.90;;;;;;5054251;28;20040;-79
2022/12/08 11:17:46;;;;;;;0.73;0.20;;;3.80;99.90;;;;;;5053857;28;20484;-80
2022/12/08 11:20:12;;;;;;;1.45;0.17;;;3.80;99.90;;;;;;5053798;28;20499;-80
2022/12/08 11:22:43;;;;;;;1.17;0.13;;;3.70;99.90;;;;;;5053805;28;20048;-80
2022/12/08 11:25:12;;;;;;;2.20;0.20;;;3.80;99.90;;;;;;5053783;28;20477;-80
2022/12/08 11:27:43;;;;;;;2.83;0.30;;;3.70;99.90;;;;;;5053768;28;20044;-80
2022/12/08 11:30:22;;;;;;;1.08;0.28;;;3.70;99.90;;;;;;5054022;28;20045;-80
2022/12/08 11:32:52;;;;;;;1.95;0.20;;;3.70;99.90;;;;;;5053770;28;20048;-80
2022/12/08 11:35:20;;;;;;;1.52;0.10;;;3.70;99.90;;;;;;5053870;28;20444;-80
2022/12/08 11:37:46;;;;;;;1.98;0.15;;;3.60;99.90;;;;;;5053280;28;20051;-80
2022/12/08 11:40:27;;;;;;;0.35;0.10;;;3.50;99.90;;;;;;5036921;28;20052;-79
2022/12/08 11:42:59;;;;;;;1.55;0.10;;;3.60;99.90;;;;;;5053353;28;20076;-81
2022/12/08 11:45:30;;;;;;;1.80;0.20;;;3.60;99.90;;;;;;5053361;28;20041;-81
2022/12/08 11:48:05;;;;;;;1.95;0.20;;;3.60;99.90;;;;;;5053691;28;20064;-80
2022/12/08 11:50:42;;;;;;;0.00;0.00;;;3.80;99.90;;;;;;5053255;28;20047;-80
2022/12/08 11:53:17;;;;;;;1.23;0.20;;;3.80;99.90;;;;;;5053206;28;20049;-81
2022/12/08 11:55:49;;;;;;;1.10;0.10;;;3.90;99.90;;;;;;5053253;28;20045;-81
2022/12/08 11:58:25;;;;;;;0.63;0.10;;;3.90;99.90;;;;;;5053220;28;20053;-80
2022/12/08 12:00:50;;;;;;;0.73;0.10;;;3.90;99.90;;;;;;5053350;28;20045;-81
2022/12/08 12:03:39;;;;;;;0.43;0.20;;;3.80;99.90;;;;;;5053397;28;20052;-81
2022/12/08 12:06:07;;;;;;;2.88;0.35;;;3.90;99.90;;;;;;5054191;28;20040;-81
2022/12/08 12:08:52;;;;;;;2.63;0.85;;;3.70;99.90;;;;;;5052955;28;20049;-81
2022/12/08 12:14:21;;;;;;;2.33;0.70;;;3.60;99.90;;;;;;5052909;28;20507;-81
2022/12/08 12:17:02;;;;;;;2.30;0.40;;;3.60;99.90;;;;;;5052828;28;20052;-81
2022/12/08 12:19:34;;;;;;;2.50;1.10;;;3.70;99.90;;;;;;5052860;28;20053;-81
2022/12/08 12:22:12;;;;;;;2.80;0.75;;;3.70;99.90;;;;;;5052035;28;20057;-81
2022/12/08 12:24:38;;;;;;;2.70;0.50;;;3.60;99.90;;;;;;5052642;28;20087;-80
2022/12/08 12:27:20;;;;;;;6.30;0.52;;;3.60;99.90;;;;;;5052454;28;20399;-80
2022/12/08 12:29:58;;;;;;;1.60;0.52;;;3.70;99.90;;;;;;5052064;28;20400;-78
2022/12/08 12:32:26;;;;;;;4.07;0.90;;;3.70;99.90;;;;;;5043255;28;20048;-79
2022/12/08 12:34:56;;;;;;;2.92;0.50;;;3.60;99.90;;;;;;5052656;28;20041;-79
2022/12/08 12:37:38;;;;;;;1.85;0.40;;;3.60;99.90;;;;;;5053964;28;20139;-81
2022/12/08 12:40:21;;;;;;;3.08;0.38;;;3.60;99.90;;;;;;5052700;28;20045;-81
2022/12/08 12:43:08;;;;;;;;;;;3.50;99.90;;;;;;5053028;28;20053;-81
2022/12/08 12:45:35;;;;;;;2.45;0.22;;;3.50;99.90;;;;;;5052303;28;20031;-81
2022/12/08 12:48:00;;;;;;;3.17;0.50;;;3.50;99.90;;;;;;5052458;28;20119;-81
2022/12/08 12:50:32;;;;;;;0.75;0.10;;;3.50;99.90;;;;;;5052267;28;20507;-81
2022/12/08 12:53:16;;;;;;;2.22;0.17;;;3.50;99.90;;;;;;5052839;28;20047;-81
2022/12/08 12:55:57;;;;;;;1.58;0.50;;;3.50;99.90;;;;;;5052069;28;20127;-80
2022/12/08 12:58:29;;;;;;;6.75;1.10;;;3.50;99.90;;;;;;5052145;28;20160;-80
2022/12/08 13:01:10;;;;;;;5.65;2.83;;;3.60;99.90;;;;;;5052146;28;20041;-81
2022/12/08 13:03:48;;;;;;;1.77;0.50;;;3.50;99.90;;;;;;5052354;28;20052;-80
2022/12/08 13:06:22;;;;;;;4.28;0.38;;;3.50;99.90;;;;;;5050428;28;20041;-79
2022/12/08 13:08:55;;;;;;;2.33;0.30;;;3.50;99.90;;;;;;5050597;28;20489;-79
2022/12/08 13:11:22;;;;;;;3.30;0.45;;;3.60;99.90;;;;;;5051823;28;20052;-78
2022/12/08 13:14:03;;;;;;;2.63;0.80;;;3.50;99.90;;;;;;5050488;28;20045;-79
2022/12/08 13:16:35;;;;;;;8.07;0.70;;;3.60;99.90;;;;;;5052206;28;20053;-78
2022/12/08 13:19:09;;;;;;;4.35;0.50;;;3.50;99.90;;;;;;5051919;28;20135;-78
2022/12/08 13:21:37;;;;;;;4.13;0.70;;;3.60;99.90;;;;;;5051905;28;20057;-79